Airfield :
LOGIN :

Register | Disclaimer

   EN    FR    IT 

 










Legend :    VFR   Marginal VFR   IFR   Intensive IFR   Very Intensive IFR
Visi :
Ceiling :
>= 8 km
>= 3000ft
5 to 8 km
1000 to 3000 ft
1500m to 5 km
500 to 1000 ft
800 to 1500m
200 to 500 ft
< 800m
< 200 ft
Symbols :   Thunderstorms  Fog  Heavy snow  Heavy precipitations  Wind > 20 kt
SIGMETs :     Misc.  Thunderstorms  Icing  Turbulence  Mountain Waves  Volcanic Ashes






- Airport Elevation : 600 ft
- IATA code : VIE


LOWW - Vienna Schwechat

CURRENT METAR :
  • 211350Z 01015KT 330V040 9999 FEW036 09/M00 Q1015 NOSIG

EXPIRED METARs :
  • 211320Z 01014KT 9999 FEW038 SCT042 09/M00 Q1015 NOSIG
  • 211250Z 01012KT 9999 FEW036 SCT042 09/01 Q1016 NOSIG
  • 211220Z 01013KT 9999 FEW034 SCT042 09/00 Q1016 NOSIG
  • 211150Z 01012KT 330V040 9999 FEW038 SCT044 08/00 Q1016 NOSIG
  • 211120Z 01013KT 9999 FEW030 BKN042 07/M00 Q1016 NOSIG
  • 211050Z 01013KT 340V040 9999 FEW028 BKN044 08/01 Q1016 NOSIG
  • 211020Z 01013KT 9999 FEW032 SCT040 08/00 Q1016 NOSIG
  • 210950Z 01012KT 330V030 9999 FEW032 BKN042 07/M00 Q1017 NOSIG
  • 210920Z 36013KT 9999 FEW034 BKN042 07/M00 Q1017 NOSIG

TAF TAF LOWW
Valid from the 21 at 12:00 until the 22 at 18:00 UTC


211115Z 2112/2218 35013KT 9999 SCT030 TX09/2114Z TN03/2203Z



MET'MAP, your aeronautical weather chart ! - Copyright ORBIFLY December 2007 - Disclaimer

ORBIFLY MET'MAP TEAM :

Programming & Development : Alexandra Zaïnal
Original concept : Baudouin d'Aumeries
Technical & hardware support : Manuel Goepfert
Assistance : Marc-Olivier Méhu




SOURCES & CREDITS :

   NOAA